sensor_id;sensor_type;location;lat;lon;timestamp;temperature;humidity
45409;DHT22;31162;51.076;3.784;2023-04-06T00:01:39;10.20;97.80
45409;DHT22;31162;51.076;3.784;2023-04-06T00:04:05;10.10;98.30
45409;DHT22;31162;51.076;3.784;2023-04-06T00:06:31;10.10;98.60
45409;DHT22;31162;51.076;3.784;2023-04-06T00:08:58;9.90;98.90
45409;DHT22;31162;51.076;3.784;2023-04-06T00:11:24;9.90;99.30
45409;DHT22;31162;51.076;3.784;2023-04-06T00:13:50;9.90;99.30
45409;DHT22;31162;51.076;3.784;2023-04-06T00:16:16;9.90;99.30
45409;DHT22;31162;51.076;3.784;2023-04-06T00:18:42;9.90;99.00
45409;DHT22;31162;51.076;3.784;2023-04-06T00:21:07;9.70;99.50
45409;DHT22;31162;51.076;3.784;2023-04-06T00:23:35;9.70;99.90
45409;DHT22;31162;51.076;3.784;2023-04-06T00:26:01;9.70;99.90
45409;DHT22;31162;51.076;3.784;2023-04-06T00:28:26;9.80;99.90
45409;DHT22;31162;51.076;3.784;2023-04-06T00:30:53;9.70;99.90
45409;DHT22;31162;51.076;3.784;2023-04-06T00:33:20;9.70;99.90
45409;DHT22;31162;51.076;3.784;2023-04-06T00:35:46;9.80;99.90
45409;DHT22;31162;51.076;3.784;2023-04-06T00:38:12;9.70;99.90
45409;DHT22;31162;51.076;3.784;2023-04-06T00:40:38;9.70;99.90
45409;DHT22;31162;51.076;3.784;2023-04-06T00:43:05;9.60;99.90
45409;DHT22;31162;51.076;3.784;2023-04-06T00:45:32;9.60;99.90
45409;DHT22;31162;51.076;3.784;2023-04-06T00:47:58;9.70;99.90
45409;DHT22;31162;51.076;3.784;2023-04-06T00:50:24;9.70;99.90
45409;DHT22;31162;51.076;3.784;2023-04-06T00:52:50;9.60;99.90
45409;DHT22;31162;51.076;3.784;2023-04-06T00:55:16;9.70;99.90
45409;DHT22;31162;51.076;3.784;2023-04-06T00:57:42;9.70;99.90
45409;DHT22;31162;51.076;3.784;2023-04-06T01:00:08;9.70;99.90
45409;DHT22;31162;51.076;3.784;2023-04-06T01:02:35;9.80;99.90
45409;DHT22;31162;51.076;3.784;2023-04-06T01:05:01;9.80;99.90
45409;DHT22;31162;51.076;3.784;2023-04-06T01:07:27;9.90;99.90
45409;DHT22;31162;51.076;3.784;2023-04-06T01:09:54;10.00;99.90
45409;DHT22;31162;51.076;3.784;2023-04-06T01:12:20;10.00;99.90
45409;DHT22;31162;51.076;3.784;2023-04-06T01:14:45;9.80;99.90
45409;DHT22;31162;51.076;3.784;2023-04-06T01:17:11;9.90;99.90
45409;DHT22;31162;51.076;3.784;2023-04-06T01:19:37;9.90;99.90
45409;DHT22;31162;51.076;3.784;2023-04-06T01:22:03;9.90;99.90
45409;DHT22;31162;51.076;3.784;2023-04-06T01:24:28;9.90;99.90
45409;DHT22;31162;51.076;3.784;2023-04-06T01:26:54;9.90;99.90
45409;DHT22;31162;51.076;3.784;2023-04-06T01:29:22;9.90;99.90
45409;DHT22;31162;51.076;3.784;2023-04-06T01:31:47;9.90;99.90
45409;DHT22;31162;51.076;3.784;2023-04-06T01:34:13;9.90;99.90
45409;DHT22;31162;51.076;3.784;2023-04-06T01:36:39;9.90;99.90
45409;DHT22;31162;51.076;3.784;2023-04-06T01:39:04;9.80;99.90
45409;DHT22;31162;51.076;3.784;2023-04-06T01:41:30;9.70;99.90
45409;DHT22;31162;51.076;3.784;2023-04-06T01:43:56;9.70;99.90
45409;DHT22;31162;51.076;3.784;2023-04-06T01:46:22;9.80;99.90
45409;DHT22;31162;51.076;3.784;2023-04-06T01:48:48;9.80;99.90
45409;DHT22;31162;51.076;3.784;2023-04-06T01:51:14;9.80;99.90
45409;DHT22;31162;51.076;3.784;2023-04-06T01:53:40;9.80;99.90
45409;DHT22;31162;51.076;3.784;2023-04-06T01:56:06;9.70;99.90
45409;DHT22;31162;51.076;3.784;2023-04-06T01:58:31;9.70;99.90
45409;DHT22;31162;51.076;3.784;2023-04-06T02:00:57;9.70;99.90
45409;DHT22;31162;51.076;3.784;2023-04-06T02:03:23;9.70;99.90
45409;DHT22;31162;51.076;3.784;2023-04-06T02:05:48;9.70;99.90
45409;DHT22;31162;51.076;3.784;2023-04-06T02:08:14;9.70;99.90
45409;DHT22;31162;51.076;3.784;2023-04-06T02:10:40;9.70;99.90
45409;DHT22;31162;51.076;3.784;2023-04-06T02:13:06;9.70;99.90
45409;DHT22;31162;51.076;3.784;2023-04-06T02:15:32;9.60;99.90
45409;DHT22;31162;51.076;3.784;2023-04-06T02:17:58;9.60;99.90
45409;DHT22;31162;51.076;3.784;2023-04-06T02:20:24;9.50;99.90
45409;DHT22;31162;51.076;3.784;2023-04-06T02:22:49;9.40;99.90
45409;DHT22;31162;51.076;3.784;2023-04-06T02:25:15;9.40;99.90
45409;DHT22;31162;51.076;3.784;2023-04-06T02:27:41;9.50;99.90
45409;DHT22;31162;51.076;3.784;2023-04-06T02:30:07;9.60;99.90
45409;DHT22;31162;51.076;3.784;2023-04-06T02:32:33;9.60;99.90
45409;DHT22;31162;51.076;3.784;2023-04-06T02:34:59;9.70;99.90
45409;DHT22;31162;51.076;3.784;2023-04-06T02:37:25;9.70;99.90
45409;DHT22;31162;51.076;3.784;2023-04-06T02:39:51;9.70;99.90
45409;DHT22;31162;51.076;3.784;2023-04-06T02:42:17;9.60;99.90
45409;DHT22;31162;51.076;3.784;2023-04-06T02:44:43;9.70;99.90
45409;DHT22;31162;51.076;3.784;2023-04-06T02:47:09;9.60;99.90
45409;DHT22;31162;51.076;3.784;2023-04-06T02:49:35;9.60;99.90
45409;DHT22;31162;51.076;3.784;2023-04-06T02:52:01;9.50;99.90
45409;DHT22;31162;51.076;3.784;2023-04-06T02:54:27;9.50;99.90
45409;DHT22;31162;51.076;3.784;2023-04-06T02:56:53;9.40;99.90
45409;DHT22;31162;51.076;3.784;2023-04-06T02:59:18;9.50;99.90
45409;DHT22;31162;51.076;3.784;2023-04-06T03:01:44;9.50;99.90
45409;DHT22;31162;51.076;3.784;2023-04-06T03:04:10;9.50;99.90
45409;DHT22;31162;51.076;3.784;2023-04-06T03:06:36;9.50;99.90
45409;DHT22;31162;51.076;3.784;2023-04-06T03:09:02;9.50;99.90
45409;DHT22;31162;51.076;3.784;2023-04-06T03:11:27;9.60;99.90
45409;DHT22;31162;51.076;3.784;2023-04-06T03:13:53;9.60;99.90
45409;DHT22;31162;51.076;3.784;2023-04-06T03:16:19;9.60;99.90
45409;DHT22;31162;51.076;3.784;2023-04-06T03:18:45;9.60;99.90
45409;DHT22;31162;51.076;3.784;2023-04-06T03:21:12;9.70;99.90
45409;DHT22;31162;51.076;3.784;2023-04-06T03:23:38;9.60;99.90
45409;DHT22;31162;51.076;3.784;2023-04-06T03:26:04;9.70;99.90
45409;DHT22;31162;51.076;3.784;2023-04-06T03:28:29;9.70;99.90
45409;DHT22;31162;51.076;3.784;2023-04-06T03:30:55;9.60;99.90
45409;DHT22;31162;51.076;3.784;2023-04-06T03:33:21;9.60;99.90
45409;DHT22;31162;51.076;3.784;2023-04-06T03:35:46;9.70;99.90
45409;DHT22;31162;51.076;3.784;2023-04-06T03:38:12;9.70;99.90
45409;DHT22;31162;51.076;3.784;2023-04-06T03:40:38;9.60;99.90
45409;DHT22;31162;51.076;3.784;2023-04-06T03:43:04;9.60;99.90
45409;DHT22;31162;51.076;3.784;2023-04-06T03:45:30;9.60;99.90
45409;DHT22;31162;51.076;3.784;2023-04-06T03:47:55;9.60;99.90
45409;DHT22;31162;51.076;3.784;2023-04-06T03:50:21;9.70;99.90
45409;DHT22;31162;51.076;3.784;2023-04-06T03:52:47;9.60;99.90
45409;DHT22;31162;51.076;3.784;2023-04-06T03:55:13;9.60;99.90
45409;DHT22;31162;51.076;3.784;2023-04-06T03:57:39;9.70;99.90
45409;DHT22;31162;51.076;3.784;2023-04-06T04:00:05;9.70;99.90
45409;DHT22;31162;51.076;3.784;2023-04-06T04:02:31;9.60;99.90
45409;DHT22;31162;51.076;3.784;2023-04-06T04:04:57;9.70;99.90
45409;DHT22;31162;51.076;3.784;2023-04-06T04:07:22;9.70;99.90
45409;DHT22;31162;51.076;3.784;2023-04-06T04:09:48;9.70;99.90
45409;DHT22;31162;51.076;3.784;2023-04-06T04:12:14;9.70;99.90
45409;DHT22;31162;51.076;3.784;2023-04-06T04:14:42;9.80;99.90
45409;DHT22;31162;51.076;3.784;2023-04-06T04:17:08;9.70;99.90
45409;DHT22;31162;51.076;3.784;2023-04-06T04:19:33;9.80;99.90
45409;DHT22;31162;51.076;3.784;2023-04-06T04:21:59;9.70;99.90
45409;DHT22;31162;51.076;3.784;2023-04-06T04:24:25;9.80;99.90
45409;DHT22;31162;51.076;3.784;2023-04-06T04:26:51;9.90;99.90
45409;DHT22;31162;51.076;3.784;2023-04-06T04:29:17;9.80;99.90
45409;DHT22;31162;51.076;3.784;2023-04-06T04:31:45;9.80;99.90
45409;DHT22;31162;51.076;3.784;2023-04-06T04:34:11;9.80;99.90
45409;DHT22;31162;51.076;3.784;2023-04-06T04:36:36;9.80;99.90
45409;DHT22;31162;51.076;3.784;2023-04-06T04:39:02;9.90;99.90
45409;DHT22;31162;51.076;3.784;2023-04-06T04:41:28;9.90;99.90
45409;DHT22;31162;51.076;3.784;2023-04-06T04:43:53;9.80;99.90
45409;DHT22;31162;51.076;3.784;2023-04-06T04:46:19;9.80;99.90
45409;DHT22;31162;51.076;3.784;2023-04-06T04:48:44;9.70;99.90
45409;DHT22;31162;51.076;3.784;2023-04-06T04:51:10;9.60;99.90
45409;DHT22;31162;51.076;3.784;2023-04-06T04:53:36;9.60;99.90
45409;DHT22;31162;51.076;3.784;2023-04-06T04:56:01;9.60;99.90
45409;DHT22;31162;51.076;3.784;2023-04-06T04:58:27;9.60;99.90
45409;DHT22;31162;51.076;3.784;2023-04-06T05:00:53;9.70;99.90
45409;DHT22;31162;51.076;3.784;2023-04-06T05:03:21;9.70;99.90
45409;DHT22;31162;51.076;3.784;2023-04-06T05:05:48;9.70;99.90
45409;DHT22;31162;51.076;3.784;2023-04-06T05:08:13;9.80;99.90
45409;DHT22;31162;51.076;3.784;2023-04-06T05:10:39;9.80;99.90
45409;DHT22;31162;51.076;3.784;2023-04-06T05:13:05;9.80;99.90
45409;DHT22;31162;51.076;3.784;2023-04-06T05:15:31;9.80;99.90
45409;DHT22;31162;51.076;3.784;2023-04-06T05:17:57;9.70;99.90
45409;DHT22;31162;51.076;3.784;2023-04-06T05:20:23;9.60;99.90
45409;DHT22;31162;51.076;3.784;2023-04-06T05:22:48;9.50;99.90
45409;DHT22;31162;51.076;3.784;2023-04-06T05:25:15;9.60;99.90
45409;DHT22;31162;51.076;3.784;2023-04-06T05:27:40;9.50;99.90
45409;DHT22;31162;51.076;3.784;2023-04-06T05:30:07;9.30;99.90
45409;DHT22;31162;51.076;3.784;2023-04-06T05:32:33;9.20;99.90
45409;DHT22;31162;51.076;3.784;2023-04-06T05:34:59;9.20;99.90
45409;DHT22;31162;51.076;3.784;2023-04-06T05:37:25;9.20;99.90
45409;DHT22;31162;51.076;3.784;2023-04-06T05:39:51;9.10;99.90
45409;DHT22;31162;51.076;3.784;2023-04-06T05:42:16;9.00;99.90
45409;DHT22;31162;51.076;3.784;2023-04-06T05:44:42;9.00;99.90
45409;DHT22;31162;51.076;3.784;2023-04-06T05:47:08;8.90;99.90
45409;DHT22;31162;51.076;3.784;2023-04-06T05:49:33;8.90;99.90
45409;DHT22;31162;51.076;3.784;2023-04-06T05:52:00;8.90;99.90
45409;DHT22;31162;51.076;3.784;2023-04-06T05:54:26;8.80;99.90
45409;DHT22;31162;51.076;3.784;2023-04-06T05:56:51;8.80;99.90
45409;DHT22;31162;51.076;3.784;2023-04-06T05:59:17;8.90;99.90
45409;DHT22;31162;51.076;3.784;2023-04-06T06:01:43;8.90;99.90
45409;DHT22;31162;51.076;3.784;2023-04-06T06:04:08;8.80;99.90
45409;DHT22;31162;51.076;3.784;2023-04-06T06:06:34;8.80;99.90
45409;DHT22;31162;51.076;3.784;2023-04-06T06:09:00;8.60;99.90
45409;DHT22;31162;51.076;3.784;2023-04-06T06:11:28;8.40;99.90
45409;DHT22;31162;51.076;3.784;2023-04-06T06:13:53;8.40;99.90
45409;DHT22;31162;51.076;3.784;2023-04-06T06:16:19;8.50;99.90
45409;DHT22;31162;51.076;3.784;2023-04-06T06:18:45;8.50;99.90
45409;DHT22;31162;51.076;3.784;2023-04-06T06:21:11;8.60;99.90
45409;DHT22;31162;51.076;3.784;2023-04-06T06:23:38;8.60;99.90
45409;DHT22;31162;51.076;3.784;2023-04-06T06:26:04;8.50;99.90
45409;DHT22;31162;51.076;3.784;2023-04-06T06:28:30;8.40;99.90
45409;DHT22;31162;51.076;3.784;2023-04-06T06:30:55;8.40;99.90
45409;DHT22;31162;51.076;3.784;2023-04-06T06:33:21;8.50;99.90
45409;DHT22;31162;51.076;3.784;2023-04-06T06:35:47;8.60;99.90
45409;DHT22;31162;51.076;3.784;2023-04-06T06:38:12;8.30;99.90
45409;DHT22;31162;51.076;3.784;2023-04-06T06:40:39;8.30;99.90
45409;DHT22;31162;51.076;3.784;2023-04-06T06:43:05;8.40;99.90
45409;DHT22;31162;51.076;3.784;2023-04-06T06:45:31;8.40;99.90
45409;DHT22;31162;51.076;3.784;2023-04-06T06:47:56;8.40;99.90
45409;DHT22;31162;51.076;3.784;2023-04-06T06:50:22;8.50;99.90
45409;DHT22;31162;51.076;3.784;2023-04-06T06:52:48;8.60;99.90
45409;DHT22;31162;51.076;3.784;2023-04-06T06:55:13;8.70;99.90
45409;DHT22;31162;51.076;3.784;2023-04-06T06:57:39;8.70;99.90
45409;DHT22;31162;51.076;3.784;2023-04-06T07:00:08;8.90;99.90
45409;DHT22;31162;51.076;3.784;2023-04-06T07:02:34;9.00;99.90
45409;DHT22;31162;51.076;3.784;2023-04-06T07:05:01;8.80;99.90
45409;DHT22;31162;51.076;3.784;2023-04-06T07:07:27;8.80;99.90
45409;DHT22;31162;51.076;3.784;2023-04-06T07:09:53;8.80;99.90
45409;DHT22;31162;51.076;3.784;2023-04-06T07:12:18;8.80;99.90
45409;DHT22;31162;51.076;3.784;2023-04-06T07:14:44;9.10;99.90
45409;DHT22;31162;51.076;3.784;2023-04-06T07:17:10;9.20;99.90
45409;DHT22;31162;51.076;3.784;2023-04-06T07:19:36;9.10;99.90
45409;DHT22;31162;51.076;3.784;2023-04-06T07:22:03;9.30;99.90
45409;DHT22;31162;51.076;3.784;2023-04-06T07:24:30;9.30;99.90
45409;DHT22;31162;51.076;3.784;2023-04-06T07:26:55;9.20;99.90
45409;DHT22;31162;51.076;3.784;2023-04-06T07:29:22;9.30;99.90
45409;DHT22;31162;51.076;3.784;2023-04-06T07:31:48;9.10;99.90
45409;DHT22;31162;51.076;3.784;2023-04-06T07:34:14;9.00;99.90
45409;DHT22;31162;51.076;3.784;2023-04-06T07:36:40;9.10;99.90
45409;DHT22;31162;51.076;3.784;2023-04-06T07:39:07;9.20;99.90
45409;DHT22;31162;51.076;3.784;2023-04-06T07:41:32;9.00;99.90
45409;DHT22;31162;51.076;3.784;2023-04-06T07:43:58;8.90;99.90
45409;DHT22;31162;51.076;3.784;2023-04-06T07:46:24;8.80;99.90
45409;DHT22;31162;51.076;3.784;2023-04-06T07:48:50;9.00;99.90
45409;DHT22;31162;51.076;3.784;2023-04-06T07:51:16;8.80;99.90
45409;DHT22;31162;51.076;3.784;2023-04-06T07:53:44;8.80;99.90
45409;DHT22;31162;51.076;3.784;2023-04-06T07:56:10;8.50;99.90
45409;DHT22;31162;51.076;3.784;2023-04-06T07:58:35;8.60;99.90
45409;DHT22;31162;51.076;3.784;2023-04-06T08:01:02;8.70;99.90
45409;DHT22;31162;51.076;3.784;2023-04-06T08:03:27;8.70;99.90
45409;DHT22;31162;51.076;3.784;2023-04-06T08:05:53;8.70;99.90
45409;DHT22;31162;51.076;3.784;2023-04-06T08:08:19;8.50;99.90
45409;DHT22;31162;51.076;3.784;2023-04-06T08:10:47;8.50;99.90
45409;DHT22;31162;51.076;3.784;2023-04-06T08:13:12;8.50;99.90
45409;DHT22;31162;51.076;3.784;2023-04-06T08:15:38;8.80;99.90
45409;DHT22;31162;51.076;3.784;2023-04-06T08:18:04;9.00;99.90
45409;DHT22;31162;51.076;3.784;2023-04-06T08:20:30;9.00;99.90
45409;DHT22;31162;51.076;3.784;2023-04-06T08:22:56;9.10;99.90
45409;DHT22;31162;51.076;3.784;2023-04-06T08:25:22;9.10;99.90
45409;DHT22;31162;51.076;3.784;2023-04-06T08:27:48;9.10;99.90
45409;DHT22;31162;51.076;3.784;2023-04-06T08:30:13;9.00;99.90
45409;DHT22;31162;51.076;3.784;2023-04-06T08:32:41;9.20;99.90
45409;DHT22;31162;51.076;3.784;2023-04-06T08:35:07;9.20;99.90
45409;DHT22;31162;51.076;3.784;2023-04-06T08:37:33;9.10;99.90
45409;DHT22;31162;51.076;3.784;2023-04-06T08:39:59;8.90;99.90
45409;DHT22;31162;51.076;3.784;2023-04-06T08:42:25;8.60;99.90
45409;DHT22;31162;51.076;3.784;2023-04-06T08:44:51;8.80;99.90
45409;DHT22;31162;51.076;3.784;2023-04-06T08:47:18;8.80;99.90
45409;DHT22;31162;51.076;3.784;2023-04-06T08:49:44;8.90;99.90
45409;DHT22;31162;51.076;3.784;2023-04-06T08:52:11;8.80;99.90
45409;DHT22;31162;51.076;3.784;2023-04-06T08:54:38;8.70;99.90
45409;DHT22;31162;51.076;3.784;2023-04-06T08:57:05;8.70;99.90
45409;DHT22;31162;51.076;3.784;2023-04-06T08:59:31;8.80;99.90
45409;DHT22;31162;51.076;3.784;2023-04-06T09:01:59;9.00;99.90
45409;DHT22;31162;51.076;3.784;2023-04-06T09:04:26;9.00;99.90
45409;DHT22;31162;51.076;3.784;2023-04-06T09:06:53;8.90;99.90
45409;DHT22;31162;51.076;3.784;2023-04-06T09:09:19;8.90;99.90
45409;DHT22;31162;51.076;3.784;2023-04-06T09:11:49;9.00;99.90
45409;DHT22;31162;51.076;3.784;2023-04-06T09:14:16;9.00;99.90
45409;DHT22;31162;51.076;3.784;2023-04-06T09:16:43;9.10;99.90
45409;DHT22;31162;51.076;3.784;2023-04-06T09:19:11;9.30;99.90
45409;DHT22;31162;51.076;3.784;2023-04-06T09:21:37;9.30;99.90
45409;DHT22;31162;51.076;3.784;2023-04-06T09:24:07;9.60;99.90
45409;DHT22;31162;51.076;3.784;2023-04-06T09:26:44;9.50;99.90
45409;DHT22;31162;51.076;3.784;2023-04-06T09:29:22;9.30;99.90
45409;DHT22;31162;51.076;3.784;2023-04-06T09:31:48;9.30;99.90
45409;DHT22;31162;51.076;3.784;2023-04-06T09:34:22;9.30;99.90
45409;DHT22;31162;51.076;3.784;2023-04-06T09:36:48;9.10;99.90
45409;DHT22;31162;51.076;3.784;2023-04-06T09:39:14;9.20;99.90
45409;DHT22;31162;51.076;3.784;2023-04-06T09:41:40;9.10;99.90
45409;DHT22;31162;51.076;3.784;2023-04-06T09:44:10;9.00;99.90
45409;DHT22;31162;51.076;3.784;2023-04-06T09:46:41;8.90;99.90
45409;DHT22;31162;51.076;3.784;2023-04-06T09:49:08;8.80;99.90
45409;DHT22;31162;51.076;3.784;2023-04-06T09:51:46;9.00;99.90
45409;DHT22;31162;51.076;3.784;2023-04-06T09:54:18;9.00;99.90
45409;DHT22;31162;51.076;3.784;2023-04-06T09:56:50;9.00;99.90
45409;DHT22;31162;51.076;3.784;2023-04-06T09:59:44;9.10;99.90
45409;DHT22;31162;51.076;3.784;2023-04-06T10:02:56;9.20;99.90
45409;DHT22;31162;51.076;3.784;2023-04-06T10:05:45;9.50;99.90
45409;DHT22;31162;51.076;3.784;2023-04-06T10:08:13;9.70;99.90
45409;DHT22;31162;51.076;3.784;2023-04-06T10:10:39;9.40;99.90
45409;DHT22;31162;51.076;3.784;2023-04-06T10:13:05;9.50;99.90
45409;DHT22;31162;51.076;3.784;2023-04-06T10:15:31;9.50;99.90
45409;DHT22;31162;51.076;3.784;2023-04-06T10:18:01;9.60;99.90
45409;DHT22;31162;51.076;3.784;2023-04-06T10:23:10;9.50;99.90
45409;DHT22;31162;51.076;3.784;2023-04-06T10:25:52;9.60;99.90
45409;DHT22;31162;51.076;3.784;2023-04-06T10:28:19;9.60;99.90
45409;DHT22;31162;51.076;3.784;2023-04-06T10:30:45;9.50;99.90
45409;DHT22;31162;51.076;3.784;2023-04-06T10:33:19;9.70;99.90
45409;DHT22;31162;51.076;3.784;2023-04-06T10:35:45;9.70;99.90
45409;DHT22;31162;51.076;3.784;2023-04-06T10:38:12;9.70;99.90
45409;DHT22;31162;51.076;3.784;2023-04-06T10:40:41;9.60;99.90
45409;DHT22;31162;51.076;3.784;2023-04-06T10:43:11;9.50;99.90
45409;DHT22;31162;51.076;3.784;2023-04-06T10:45:39;9.50;99.90
45409;DHT22;31162;51.076;3.784;2023-04-06T10:48:18;9.50;99.90
45409;DHT22;31162;51.076;3.784;2023-04-06T10:50:46;9.60;99.90
45409;DHT22;31162;51.076;3.784;2023-04-06T10:53:27;9.50;99.90
45409;DHT22;31162;51.076;3.784;2023-04-06T10:55:54;9.50;99.90
45409;DHT22;31162;51.076;3.784;2023-04-06T10:58:24;9.40;99.90
45409;DHT22;31162;51.076;3.784;2023-04-06T11:00:51;9.50;99.90
45409;DHT22;31162;51.076;3.784;2023-04-06T11:03:17;9.70;99.90
45409;DHT22;31162;51.076;3.784;2023-04-06T11:05:44;10.00;99.90
45409;DHT22;31162;51.076;3.784;2023-04-06T11:08:21;10.20;99.90
45409;DHT22;31162;51.076;3.784;2023-04-06T11:10:47;10.30;99.90
45409;DHT22;31162;51.076;3.784;2023-04-06T11:13:14;10.20;99.90
45409;DHT22;31162;51.076;3.784;2023-04-06T11:15:40;10.00;99.90
45409;DHT22;31162;51.076;3.784;2023-04-06T11:18:06;10.20;99.90
45409;DHT22;31162;51.076;3.784;2023-04-06T11:20:32;10.00;99.90
45409;DHT22;31162;51.076;3.784;2023-04-06T11:22:57;10.10;99.90
45409;DHT22;31162;51.076;3.784;2023-04-06T11:25:25;10.10;99.90
45409;DHT22;31162;51.076;3.784;2023-04-06T11:27:53;10.00;99.90
45409;DHT22;31162;51.076;3.784;2023-04-06T11:30:19;10.00;99.90
45409;DHT22;31162;51.076;3.784;2023-04-06T11:32:45;9.90;99.90
45409;DHT22;31162;51.076;3.784;2023-04-06T11:35:22;9.80;99.90
45409;DHT22;31162;51.076;3.784;2023-04-06T11:37:51;9.70;99.90
45409;DHT22;31162;51.076;3.784;2023-04-06T11:40:23;9.70;99.90
45409;DHT22;31162;51.076;3.784;2023-04-06T11:42:54;9.90;99.90
45409;DHT22;31162;51.076;3.784;2023-04-06T11:45:21;10.00;99.90
45409;DHT22;31162;51.076;3.784;2023-04-06T11:47:59;10.00;99.90
45409;DHT22;31162;51.076;3.784;2023-04-06T11:50:25;10.00;99.90
45409;DHT22;31162;51.076;3.784;2023-04-06T11:53:00;10.00;99.90
45409;DHT22;31162;51.076;3.784;2023-04-06T11:55:26;10.00;99.90
45409;DHT22;31162;51.076;3.784;2023-04-06T11:57:52;9.80;99.90
45409;DHT22;31162;51.076;3.784;2023-04-06T12:00:18;9.90;99.90
45409;DHT22;31162;51.076;3.784;2023-04-06T12:02:48;10.10;99.90
45409;DHT22;31162;51.076;3.784;2023-04-06T12:05:14;10.00;99.90
45409;DHT22;31162;51.076;3.784;2023-04-06T12:07:40;10.00;99.90
45409;DHT22;31162;51.076;3.784;2023-04-06T12:10:05;10.00;99.90
45409;DHT22;31162;51.076;3.784;2023-04-06T12:12:31;10.30;99.90
45409;DHT22;31162;51.076;3.784;2023-04-06T12:14:57;10.50;99.90
45409;DHT22;31162;51.076;3.784;2023-04-06T12:17:23;10.40;99.90
45409;DHT22;31162;51.076;3.784;2023-04-06T12:19:49;10.20;99.90
45409;DHT22;31162;51.076;3.784;2023-04-06T12:22:15;10.20;99.90
45409;DHT22;31162;51.076;3.784;2023-04-06T12:24:40;10.30;99.90
45409;DHT22;31162;51.076;3.784;2023-04-06T12:27:06;10.40;99.90
45409;DHT22;31162;51.076;3.784;2023-04-06T12:29:32;10.30;99.90
45409;DHT22;31162;51.076;3.784;2023-04-06T12:31:58;10.30;99.90
45409;DHT22;31162;51.076;3.784;2023-04-06T12:34:23;10.20;99.90
45409;DHT22;31162;51.076;3.784;2023-04-06T12:36:49;10.10;99.90
45409;DHT22;31162;51.076;3.784;2023-04-06T12:39:15;10.10;99.90
45409;DHT22;31162;51.076;3.784;2023-04-06T12:41:43;10.10;99.90
45409;DHT22;31162;51.076;3.784;2023-04-06T12:44:09;10.20;99.90
45409;DHT22;31162;51.076;3.784;2023-04-06T12:46:36;10.50;99.90
45409;DHT22;31162;51.076;3.784;2023-04-06T12:49:02;10.50;99.90
45409;DHT22;31162;51.076;3.784;2023-04-06T12:51:29;10.40;99.90
45409;DHT22;31162;51.076;3.784;2023-04-06T12:53:54;10.40;99.90
45409;DHT22;31162;51.076;3.784;2023-04-06T12:56:20;10.50;99.90
45409;DHT22;31162;51.076;3.784;2023-04-06T12:58:47;10.60;99.90
45409;DHT22;31162;51.076;3.784;2023-04-06T13:01:14;10.70;99.90
45409;DHT22;31162;51.076;3.784;2023-04-06T13:03:40;10.60;99.90
45409;DHT22;31162;51.076;3.784;2023-04-06T13:06:06;10.80;99.90
45409;DHT22;31162;51.076;3.784;2023-04-06T13:08:33;10.70;99.90
45409;DHT22;31162;51.076;3.784;2023-04-06T13:10:59;10.90;99.90
45409;DHT22;31162;51.076;3.784;2023-04-06T13:13:26;10.80;99.90
45409;DHT22;31162;51.076;3.784;2023-04-06T13:15:54;10.90;99.90
45409;DHT22;31162;51.076;3.784;2023-04-06T13:18:21;10.70;99.90
45409;DHT22;31162;51.076;3.784;2023-04-06T13:20:47;10.70;99.90
45409;DHT22;31162;51.076;3.784;2023-04-06T13:23:13;10.60;99.90
45409;DHT22;31162;51.076;3.784;2023-04-06T13:25:39;10.70;99.90
45409;DHT22;31162;51.076;3.784;2023-04-06T13:28:04;10.80;99.90
45409;DHT22;31162;51.076;3.784;2023-04-06T13:30:30;11.10;99.90
45409;DHT22;31162;51.076;3.784;2023-04-06T13:32:56;11.30;99.90
45409;DHT22;31162;51.076;3.784;2023-04-06T13:35:22;11.30;99.90
45409;DHT22;31162;51.076;3.784;2023-04-06T13:37:47;11.30;99.90
45409;DHT22;31162;51.076;3.784;2023-04-06T13:40:14;11.40;99.90
45409;DHT22;31162;51.076;3.784;2023-04-06T13:42:39;11.50;99.90
45409;DHT22;31162;51.076;3.784;2023-04-06T13:45:07;11.50;99.90
45409;DHT22;31162;51.076;3.784;2023-04-06T13:47:33;11.60;99.90
45409;DHT22;31162;51.076;3.784;2023-04-06T13:49:58;11.80;99.90
45409;DHT22;31162;51.076;3.784;2023-04-06T13:52:24;11.80;99.90
45409;DHT22;31162;51.076;3.784;2023-04-06T13:54:50;11.70;99.90
45409;DHT22;31162;51.076;3.784;2023-04-06T13:57:16;11.80;99.90
45409;DHT22;31162;51.076;3.784;2023-04-06T13:59:42;11.60;99.90
45409;DHT22;31162;51.076;3.784;2023-04-06T14:02:09;11.40;99.90
45409;DHT22;31162;51.076;3.784;2023-04-06T14:04:35;11.40;99.90
45409;DHT22;31162;51.076;3.784;2023-04-06T14:07:02;11.40;99.90
45409;DHT22;31162;51.076;3.784;2023-04-06T14:09:29;11.50;99.90
45409;DHT22;31162;51.076;3.784;2023-04-06T14:11:55;11.50;99.90
45409;DHT22;31162;51.076;3.784;2023-04-06T14:14:22;11.50;99.90
45409;DHT22;31162;51.076;3.784;2023-04-06T14:16:47;11.50;99.90
45409;DHT22;31162;51.076;3.784;2023-04-06T14:19:15;11.50;99.90
45409;DHT22;31162;51.076;3.784;2023-04-06T14:21:41;11.40;99.90
45409;DHT22;31162;51.076;3.784;2023-04-06T14:24:09;11.50;99.90
45409;DHT22;31162;51.076;3.784;2023-04-06T14:26:35;11.60;99.90
45409;DHT22;31162;51.076;3.784;2023-04-06T14:29:05;11.60;99.90
45409;DHT22;31162;51.076;3.784;2023-04-06T14:31:31;11.50;99.90
45409;DHT22;31162;51.076;3.784;2023-04-06T14:33:57;11.50;99.90
45409;DHT22;31162;51.076;3.784;2023-04-06T14:36:23;11.60;99.90
45409;DHT22;31162;51.076;3.784;2023-04-06T14:38:50;11.60;99.90
45409;DHT22;31162;51.076;3.784;2023-04-06T14:41:16;11.60;99.90
45409;DHT22;31162;51.076;3.784;2023-04-06T14:43:43;11.90;99.90
45409;DHT22;31162;51.076;3.784;2023-04-06T14:46:08;12.00;99.90
45409;DHT22;31162;51.076;3.784;2023-04-06T14:48:35;12.10;99.90
45409;DHT22;31162;51.076;3.784;2023-04-06T14:51:01;12.20;99.90
45409;DHT22;31162;51.076;3.784;2023-04-06T14:53:27;12.10;99.90
45409;DHT22;31162;51.076;3.784;2023-04-06T14:55:53;12.10;99.90
45409;DHT22;31162;51.076;3.784;2023-04-06T14:58:20;12.20;99.90
45409;DHT22;31162;51.076;3.784;2023-04-06T15:00:47;12.20;99.90
45409;DHT22;31162;51.076;3.784;2023-04-06T15:03:13;12.20;99.90
45409;DHT22;31162;51.076;3.784;2023-04-06T15:05:39;12.20;99.90
45409;DHT22;31162;51.076;3.784;2023-04-06T15:08:05;12.10;99.90
45409;DHT22;31162;51.076;3.784;2023-04-06T15:10:34;12.00;99.90
45409;DHT22;31162;51.076;3.784;2023-04-06T15:12:59;12.10;99.90
45409;DHT22;31162;51.076;3.784;2023-04-06T15:15:26;12.20;99.90
45409;DHT22;31162;51.076;3.784;2023-04-06T15:17:51;12.30;99.90
45409;DHT22;31162;51.076;3.784;2023-04-06T15:20:17;12.40;99.90
45409;DHT22;31162;51.076;3.784;2023-04-06T15:22:43;12.40;99.90
45409;DHT22;31162;51.076;3.784;2023-04-06T15:25:09;12.40;99.90
45409;DHT22;31162;51.076;3.784;2023-04-06T15:27:35;12.50;99.90
45409;DHT22;31162;51.076;3.784;2023-04-06T15:30:00;12.60;99.90
45409;DHT22;31162;51.076;3.784;2023-04-06T15:32:26;12.80;99.90
45409;DHT22;31162;51.076;3.784;2023-04-06T15:34:53;12.80;99.90
45409;DHT22;31162;51.076;3.784;2023-04-06T15:37:21;12.80;99.90
45409;DHT22;31162;51.076;3.784;2023-04-06T15:39:46;12.90;99.90
45409;DHT22;31162;51.076;3.784;2023-04-06T15:42:12;12.90;99.90